createdAt,value
2018-02-09T00:02:24.697Z,-0.90
2018-02-09T00:04:52.245Z,-0.90
2018-02-09T00:07:20.484Z,-0.70
2018-02-09T00:09:47.964Z,-0.80
2018-02-09T00:12:15.506Z,-0.80
2018-02-09T00:14:42.977Z,-1.10
2018-02-09T00:17:10.548Z,-1.00
2018-02-09T00:19:39.076Z,-1.10
2018-02-09T00:22:06.553Z,-1.10
2018-02-09T00:24:34.049Z,-1.20
2018-02-09T00:27:02.313Z,-1.30
2018-02-09T00:29:29.912Z,-1.20
2018-02-09T00:31:57.440Z,-1.20
2018-02-09T00:34:25.968Z,-1.00
2018-02-09T00:36:53.481Z,-1.00
2018-02-09T00:39:22.005Z,-0.80
2018-02-09T00:41:49.505Z,-0.80
2018-02-09T00:44:16.985Z,-0.70
2018-02-09T00:46:45.225Z,-0.60
2018-02-09T00:49:12.960Z,-0.60
2018-02-09T00:51:40.472Z,-0.50
2018-02-09T00:54:08.749Z,-0.30
2018-02-09T00:56:37.007Z,-0.30
2018-02-09T00:59:04.492Z,-0.30
2018-02-09T01:01:32.754Z,-0.30
2018-02-09T01:04:01.037Z,-0.30
2018-02-09T01:06:29.457Z,-0.30
2018-02-09T01:08:57.693Z,-0.30
2018-02-09T01:11:25.951Z,-0.30
2018-02-09T01:13:54.209Z,-0.30
2018-02-09T01:16:21.715Z,-0.40
2018-02-09T01:18:49.192Z,-0.30
2018-02-09T01:21:16.670Z,-0.30
2018-02-09T01:23:44.168Z,-0.30
2018-02-09T01:26:12.409Z,-0.30
2018-02-09T01:28:39.888Z,-0.40
2018-02-09T01:31:07.389Z,-0.30
2018-02-09T01:33:34.916Z,-0.20
2018-02-09T01:36:03.164Z,-0.20
2018-02-09T01:38:30.676Z,-0.30
2018-02-09T01:40:58.213Z,-0.20
2018-02-09T01:43:26.476Z,-0.10
2018-02-09T01:45:53.957Z,-0.10
2018-02-09T01:48:21.436Z,-0.20
2018-02-09T01:50:48.953Z,-0.10
2018-02-09T01:53:17.237Z,0.00
2018-02-09T01:55:45.481Z,-0.10
2018-02-09T01:58:12.981Z,-0.10
2018-02-09T02:00:40.459Z,-0.10
2018-02-09T02:03:07.981Z,-0.10
2018-02-09T02:05:36.245Z,-0.10
2018-02-09T02:08:03.817Z,-0.10
2018-02-09T02:10:32.061Z,-0.20
2018-02-09T02:12:59.564Z,-0.20
2018-02-09T02:15:27.040Z,-0.30
2018-02-09T02:17:54.528Z,-0.20
2018-02-09T02:20:22.046Z,-0.30
2018-02-09T02:22:49.525Z,-0.30
2018-02-09T02:25:17.021Z,-0.40
2018-02-09T02:27:44.593Z,-0.30
2018-02-09T02:30:12.847Z,-0.10
2018-02-09T02:32:41.113Z,-0.10
2018-02-09T02:35:08.588Z,-0.10
2018-02-09T02:37:36.160Z,0.00
2018-02-09T02:40:04.435Z,0.10
2018-02-09T02:42:32.717Z,0.10
2018-02-09T02:45:00.961Z,0.00
2018-02-09T02:47:29.261Z,0.00
2018-02-09T02:49:57.553Z,0.00
2018-02-09T02:52:25.030Z,0.00
2018-02-09T02:54:52.529Z,0.10
2018-02-09T02:57:20.062Z,0.10
2018-02-09T02:59:48.257Z,0.00
2018-02-09T03:02:15.993Z,0.00
2018-02-09T03:04:43.468Z,0.00
2018-02-09T03:07:10.964Z,0.10
2018-02-09T03:09:39.240Z,0.10
2018-02-09T03:12:07.518Z,0.20
2018-02-09T03:14:35.813Z,0.10
2018-02-09T03:17:03.285Z,0.10
2018-02-09T03:19:31.226Z,0.00
2018-02-09T03:21:59.735Z,0.00
2018-02-09T03:24:27.215Z,0.00
2018-02-09T03:26:54.970Z,0.10
2018-02-09T03:29:22.478Z,0.10
2018-02-09T03:31:50.748Z,0.20
2018-02-09T03:34:18.241Z,0.20
2018-02-09T03:36:45.741Z,0.30
2018-02-09T03:39:13.217Z,0.20
2018-02-09T03:41:40.713Z,0.20
2018-02-09T03:44:08.185Z,0.20
2018-02-09T03:46:35.660Z,0.20
2018-02-09T03:49:03.152Z,0.20
2018-02-09T03:51:31.441Z,0.30
2018-02-09T03:53:59.680Z,0.30
2018-02-09T03:56:27.266Z,0.30
2018-02-09T03:58:55.514Z,0.40
2018-02-09T04:01:23.013Z,0.40
2018-02-09T04:03:50.568Z,0.40
2018-02-09T04:06:18.836Z,0.40
2018-02-09T04:08:47.097Z,0.40
2018-02-09T04:11:14.572Z,0.40
2018-02-09T04:13:42.845Z,0.40
2018-02-09T04:16:11.122Z,0.10
2018-02-09T04:18:39.364Z,-0.20
2018-02-09T04:21:06.848Z,-0.20
2018-02-09T04:23:35.127Z,0.10
2018-02-09T04:26:03.368Z,0.20
2018-02-09T04:28:30.899Z,0.10
2018-02-09T04:30:58.400Z,0.20
2018-02-09T04:33:26.643Z,0.30
2018-02-09T04:35:54.123Z,0.20
2018-02-09T04:38:21.617Z,0.10
2018-02-09T04:40:49.852Z,0.00
2018-02-09T04:43:17.540Z,0.00
2018-02-09T04:45:45.829Z,0.00
2018-02-09T04:48:14.068Z,0.10
2018-02-09T04:50:41.605Z,0.10
2018-02-09T04:53:09.109Z,0.20
2018-02-09T04:55:37.348Z,0.10
2018-02-09T04:58:04.843Z,0.10
2018-02-09T05:00:33.086Z,0.20
2018-02-09T05:03:00.576Z,0.20
2018-02-09T05:05:28.070Z,0.20
2018-02-09T05:07:55.545Z,0.10
2018-02-09T05:10:23.045Z,0.20
2018-02-09T05:12:51.572Z,0.20
2018-02-09T05:15:19.049Z,0.20
2018-02-09T05:17:46.545Z,0.20
2018-02-09T05:20:14.781Z,0.20
2018-02-09T05:22:42.258Z,0.20
2018-02-09T05:25:10.525Z,0.20
2018-02-09T05:27:38.006Z,0.20
2018-02-09T05:30:06.275Z,0.30
2018-02-09T05:32:34.561Z,0.30
2018-02-09T05:35:02.800Z,0.30
2018-02-09T05:37:30.293Z,0.30
2018-02-09T05:39:58.540Z,0.40
2018-02-09T05:42:26.037Z,0.40
2018-02-09T05:44:54.277Z,0.50
2018-02-09T05:47:22.008Z,0.50
2018-02-09T05:49:49.533Z,0.60
2018-02-09T05:52:17.773Z,0.60
2018-02-09T05:54:45.506Z,0.60
2018-02-09T05:57:13.020Z,0.60
2018-02-09T05:59:41.265Z,0.50
2018-02-09T06:02:09.822Z,0.50
2018-02-09T06:04:37.332Z,0.50
2018-02-09T06:07:05.576Z,0.60
2018-02-09T06:09:33.165Z,0.60
2018-02-09T06:12:01.413Z,0.60
2018-02-09T06:14:28.888Z,0.60
2018-02-09T06:16:57.177Z,0.60
2018-02-09T06:19:25.453Z,0.60
2018-02-09T06:21:53.712Z,0.70
2018-02-09T06:24:21.229Z,0.60
2018-02-09T06:26:49.008Z,0.60
2018-02-09T06:29:16.500Z,0.50
2018-02-09T06:31:44.749Z,0.40
2018-02-09T06:34:12.340Z,0.40
2018-02-09T06:36:40.616Z,0.60
2018-02-09T06:39:08.860Z,0.50
2018-02-09T06:41:36.453Z,0.50
2018-02-09T06:44:04.696Z,0.40
2018-02-09T06:46:32.173Z,0.40
2018-02-09T06:48:59.670Z,0.50
2018-02-09T06:51:27.148Z,0.50
2018-02-09T06:53:54.661Z,0.60
2018-02-09T06:56:22.905Z,0.70
2018-02-09T06:58:50.381Z,0.70
2018-02-09T07:01:17.872Z,0.80
2018-02-09T07:03:45.356Z,0.80
2018-02-09T07:06:12.849Z,0.70
2018-02-09T07:08:40.327Z,0.50
2018-02-09T07:11:08.573Z,0.50
2018-02-09T07:13:36.152Z,0.40
2018-02-09T07:16:04.402Z,0.50
2018-02-09T07:18:31.900Z,0.40
2018-02-09T07:20:59.388Z,0.40
2018-02-09T07:23:26.861Z,0.40
2018-02-09T07:25:54.357Z,0.40
2018-02-09T07:28:22.596Z,0.50
2018-02-09T07:30:50.341Z,0.40
2018-02-09T07:33:17.836Z,0.50
2018-02-09T07:35:45.312Z,0.50
2018-02-09T07:38:13.553Z,0.60
2018-02-09T07:40:41.052Z,0.60
2018-02-09T07:43:09.297Z,0.60
2018-02-09T07:45:36.773Z,0.60
2018-02-09T07:48:05.033Z,0.50
2018-02-09T07:50:32.504Z,0.50
2018-02-09T07:53:00.773Z,0.40
2018-02-09T07:55:28.341Z,0.40
2018-02-09T07:57:56.585Z,0.50
2018-02-09T08:00:24.081Z,0.50
2018-02-09T08:02:52.320Z,0.50
2018-02-09T08:05:19.800Z,0.50
2018-02-09T08:07:48.065Z,0.50
2018-02-09T08:10:16.329Z,0.60
2018-02-09T08:12:43.804Z,0.60
2018-02-09T08:15:11.301Z,0.60
2018-02-09T08:17:38.777Z,0.70
2018-02-09T08:20:06.258Z,0.70
2018-02-09T08:22:33.749Z,0.70
2018-02-09T08:25:02.013Z,0.70
2018-02-09T08:27:30.284Z,0.70
2018-02-09T08:29:57.760Z,0.70
2018-02-09T08:32:26.001Z,0.60
2018-02-09T08:34:53.493Z,0.60
2018-02-09T08:37:21.736Z,0.70
2018-02-09T08:39:49.274Z,0.80
2018-02-09T08:42:16.744Z,0.80
2018-02-09T08:44:44.222Z,0.70
2018-02-09T08:47:12.477Z,0.80
2018-02-09T08:49:40.218Z,0.80
2018-02-09T08:52:07.713Z,0.90
2018-02-09T08:54:35.208Z,0.80
2018-02-09T08:57:02.684Z,0.90
2018-02-09T08:59:30.454Z,0.90
2018-02-09T09:01:57.964Z,0.80
2018-02-09T09:04:26.226Z,1.00
2018-02-09T09:06:53.707Z,0.90
2018-02-09T09:09:21.969Z,0.80
2018-02-09T09:11:50.208Z,0.80
2018-02-09T09:14:17.957Z,0.80
2018-02-09T09:16:45.508Z,0.80
2018-02-09T09:19:12.981Z,0.90
2018-02-09T09:21:40.461Z,0.70
2018-02-09T09:24:07.956Z,0.70
2018-02-09T09:26:35.433Z,0.70
2018-02-09T09:29:02.961Z,0.70
2018-02-09T09:31:31.221Z,0.70
2018-02-09T09:33:59.465Z,0.70
2018-02-09T09:36:26.969Z,0.70
2018-02-09T09:38:55.217Z,0.70
2018-02-09T09:41:22.697Z,0.70
2018-02-09T09:43:50.953Z,0.80
2018-02-09T09:46:18.450Z,0.70
2018-02-09T09:48:45.964Z,0.80
2018-02-09T09:51:13.440Z,0.90
2018-02-09T09:53:41.709Z,1.00
2018-02-09T09:56:09.215Z,0.90
2018-02-09T09:58:36.684Z,1.10
2018-02-09T10:01:09.893Z,1.30
2018-02-09T10:03:37.377Z,1.30
2018-02-09T10:06:04.866Z,1.00
2018-02-09T10:08:32.345Z,0.90
2018-02-09T10:10:59.820Z,0.90
2018-02-09T10:13:27.599Z,1.00
2018-02-09T10:15:55.125Z,1.00
2018-02-09T10:18:22.625Z,1.00
2018-02-09T10:20:50.124Z,1.00
2018-02-09T10:23:17.600Z,1.00
2018-02-09T10:25:45.099Z,1.10
2018-02-09T10:28:12.578Z,1.10
2018-02-09T10:30:40.818Z,1.20
2018-02-09T10:33:08.321Z,1.10
2018-02-09T10:35:35.800Z,1.10
2018-02-09T10:38:03.280Z,0.90
2018-02-09T10:40:30.777Z,0.80
2018-02-09T10:42:59.056Z,1.10
2018-02-09T10:45:27.300Z,1.20
2018-02-09T10:47:54.811Z,1.20
2018-02-09T10:50:22.288Z,1.00
2018-02-09T10:52:49.764Z,1.20
2018-02-09T10:55:17.268Z,1.40
2018-02-09T10:57:45.065Z,1.30
2018-02-09T11:00:12.545Z,1.20
2018-02-09T11:02:40.039Z,1.20
2018-02-09T11:05:08.557Z,1.20
2018-02-09T11:07:36.033Z,1.20
2018-02-09T11:23:23.073Z,0.90
2018-02-09T11:25:51.333Z,1.00
2018-02-09T11:28:18.812Z,1.00
2018-02-09T11:30:47.432Z,1.10
2018-02-09T11:33:15.090Z,1.10
2018-02-09T11:35:42.594Z,1.00
2018-02-09T11:38:11.598Z,1.30
2018-02-09T11:40:40.254Z,1.40
2018-02-09T11:43:08.541Z,1.30
2018-02-09T11:45:36.019Z,1.30
2018-02-09T11:48:04.545Z,1.30
2018-02-09T11:50:32.061Z,1.30
2018-02-09T11:53:00.309Z,1.20
2018-02-09T11:55:27.793Z,1.10
2018-02-09T11:57:56.057Z,1.10
2018-02-09T12:00:23.532Z,1.10
2018-02-09T12:02:51.816Z,1.20
2018-02-09T12:05:19.328Z,1.20
2018-02-09T12:07:46.916Z,1.20
2018-02-09T12:10:15.197Z,1.20
2018-02-09T12:12:43.441Z,1.40
2018-02-09T12:15:10.919Z,1.30
2018-02-09T12:17:39.206Z,1.30
2018-02-09T12:20:06.673Z,1.20
2018-02-09T12:22:34.177Z,1.20
2018-02-09T12:25:01.652Z,1.30
2018-02-09T12:27:29.136Z,1.30
2018-02-09T12:29:57.393Z,1.20
2018-02-09T12:32:24.965Z,1.20
2018-02-09T12:34:53.229Z,1.10
2018-02-09T12:37:20.713Z,1.10
2018-02-09T12:39:48.185Z,1.20
2018-02-09T12:42:15.681Z,1.20
2018-02-09T12:44:43.156Z,1.30
2018-02-09T12:47:10.653Z,1.40
2018-02-09T12:49:38.136Z,1.50
2018-02-09T12:52:05.609Z,1.60
2018-02-09T12:54:33.109Z,1.60
2018-02-09T12:57:00.660Z,1.50
2018-02-09T12:59:28.921Z,1.80
2018-02-09T13:01:56.741Z,1.70
2018-02-09T13:04:24.256Z,1.70
2018-02-09T13:06:52.781Z,1.40
2018-02-09T13:09:20.257Z,1.40
2018-02-09T13:11:47.749Z,1.50
2018-02-09T13:14:27.828Z,1.70
2018-02-09T13:16:55.334Z,1.60
2018-02-09T13:19:22.825Z,1.80
2018-02-09T13:21:51.072Z,1.90
2018-02-09T13:24:26.301Z,1.90
2018-02-09T13:26:53.770Z,1.90
2018-02-09T13:29:21.241Z,2.00
2018-02-09T13:31:48.736Z,2.10
2018-02-09T13:34:16.212Z,2.20
2018-02-09T13:50:26.920Z,2.10
2018-02-09T13:52:55.165Z,2.30
2018-02-09T13:55:22.633Z,2.30
2018-02-09T13:57:50.116Z,2.40
2018-02-09T14:00:18.353Z,2.50
2018-02-09T14:02:45.852Z,2.40
2018-02-09T14:05:13.344Z,2.40
2018-02-09T14:07:40.821Z,2.50
2018-02-09T14:10:08.316Z,2.50
2018-02-09T14:12:36.548Z,2.70
2018-02-09T14:15:04.033Z,2.70
2018-02-09T14:17:31.602Z,2.80
2018-02-09T14:19:59.861Z,2.70
2018-02-09T14:22:27.349Z,2.70
2018-02-09T14:24:54.849Z,2.50
2018-02-09T14:27:22.336Z,2.50
2018-02-09T14:29:49.842Z,2.60
2018-02-09T14:32:17.317Z,2.50
2018-02-09T14:34:44.805Z,2.60
2018-02-09T14:37:12.281Z,2.60
2018-02-09T14:39:40.540Z,2.70
2018-02-09T14:42:08.014Z,2.70
2018-02-09T14:44:36.253Z,2.60
2018-02-09T14:47:03.992Z,2.60
2018-02-09T14:49:31.473Z,2.70
2018-02-09T14:51:59.025Z,2.70
2018-02-09T14:54:26.564Z,2.70
2018-02-09T14:56:54.773Z,2.70
2018-02-09T14:59:22.260Z,2.60
2018-02-09T15:01:50.505Z,2.70
2018-02-09T15:04:18.237Z,2.70
2018-02-09T15:06:45.763Z,2.50
2018-02-09T15:09:14.006Z,2.60
2018-02-09T15:11:41.486Z,2.60
2018-02-09T15:14:09.761Z,2.60
2018-02-09T15:16:38.041Z,2.60
2018-02-09T15:19:06.329Z,2.70
2018-02-09T15:21:33.825Z,2.70
2018-02-09T15:24:01.578Z,2.70
2018-02-09T15:26:29.055Z,2.60
2018-02-09T15:28:56.553Z,2.60
2018-02-09T15:31:24.801Z,2.60
2018-02-09T15:33:52.307Z,2.60
2018-02-09T15:36:19.786Z,2.60
2018-02-09T15:38:47.268Z,2.70
2018-02-09T15:41:14.769Z,2.70
2018-02-09T15:43:43.117Z,2.60
2018-02-09T15:46:10.589Z,2.70
2018-02-09T15:48:38.844Z,2.70
2018-02-09T15:51:06.337Z,2.60
2018-02-09T15:53:34.650Z,2.50
2018-02-09T15:56:02.121Z,2.50
2018-02-09T15:58:29.617Z,2.50
2018-02-09T16:00:57.861Z,2.40
2018-02-09T16:03:25.354Z,2.40
2018-02-09T16:05:53.593Z,2.50
2018-02-09T16:08:21.069Z,2.50
2018-02-09T16:10:48.565Z,2.40
2018-02-09T16:13:16.037Z,2.30
2018-02-09T16:15:43.600Z,2.30
2018-02-09T16:18:11.101Z,2.40
2018-02-09T16:20:38.576Z,2.30
2018-02-09T16:23:06.845Z,2.40
2018-02-09T16:25:35.269Z,2.40
2018-02-09T16:28:02.749Z,2.40
2018-02-09T16:30:30.341Z,2.40
2018-02-09T16:32:58.577Z,2.50
2018-02-09T16:35:26.069Z,2.40
2018-02-09T16:37:54.308Z,2.60
2018-02-09T16:40:21.785Z,2.60
2018-02-09T16:42:49.288Z,2.60
2018-02-09T16:45:16.817Z,2.60
2018-02-09T16:47:45.056Z,2.60
2018-02-09T16:50:12.553Z,2.60
2018-02-09T16:52:40.788Z,2.60
2018-02-09T16:55:08.260Z,2.60
2018-02-09T16:57:35.761Z,2.60
2018-02-09T17:00:03.239Z,2.60
2018-02-09T17:02:30.724Z,2.60
2018-02-09T17:04:58.217Z,2.60
2018-02-09T17:07:26.551Z,2.40
2018-02-09T17:09:54.969Z,2.50
2018-02-09T17:12:23.225Z,2.50
2018-02-09T17:14:50.700Z,2.50
2018-02-09T17:17:18.937Z,2.50
2018-02-09T17:19:46.899Z,2.50
2018-02-09T17:22:14.377Z,2.50
2018-02-09T17:24:41.849Z,2.50
2018-02-09T17:27:09.341Z,2.50
2018-02-09T17:29:36.817Z,2.30
2018-02-09T17:32:04.317Z,2.20
2018-02-09T17:34:32.032Z,2.10
2018-02-09T17:36:59.548Z,2.00
2018-02-09T17:39:27.804Z,2.10
2018-02-09T17:41:55.422Z,2.10
2018-02-09T17:44:22.874Z,2.20
2018-02-09T17:46:50.368Z,2.20
2018-02-09T17:49:18.105Z,2.20
2018-02-09T17:51:45.608Z,2.30
2018-02-09T17:54:13.081Z,2.30
2018-02-09T17:56:41.325Z,2.20
2018-02-09T17:59:08.816Z,2.20
2018-02-09T18:01:37.052Z,2.00
2018-02-09T18:04:04.617Z,2.00
2018-02-09T18:06:32.108Z,2.10
2018-02-09T18:08:59.694Z,2.10
2018-02-09T18:11:27.165Z,2.20
2018-02-09T18:13:54.728Z,2.10
2018-02-09T18:16:22.215Z,2.20
2018-02-09T18:18:49.705Z,2.20
2018-02-09T18:21:17.944Z,2.30
2018-02-09T18:23:45.413Z,2.20
2018-02-09T18:26:12.980Z,2.20
2018-02-09T18:28:41.302Z,2.30
2018-02-09T18:31:08.787Z,2.30
2018-02-09T18:33:36.268Z,2.30
2018-02-09T18:36:05.353Z,2.30
2018-02-09T18:38:33.728Z,2.20
2018-02-09T18:41:01.204Z,2.10
2018-02-09T18:43:29.725Z,2.20
2018-02-09T18:45:57.201Z,2.20
2018-02-09T18:48:24.682Z,2.10
2018-02-09T18:50:52.180Z,2.00
2018-02-09T18:53:19.716Z,1.90
2018-02-09T18:55:47.957Z,1.90
2018-02-09T18:58:15.521Z,1.90
2018-02-09T19:00:42.994Z,1.90
2018-02-09T19:03:11.249Z,1.90
2018-02-09T19:05:38.941Z,1.80
2018-02-09T19:08:07.232Z,1.80
2018-02-09T19:10:35.469Z,1.70
2018-02-09T19:13:03.200Z,1.70
2018-02-09T19:15:30.681Z,1.70
2018-02-09T19:17:58.161Z,1.70
2018-02-09T19:20:26.425Z,1.70
2018-02-09T19:22:53.901Z,1.70
2018-02-09T19:25:22.141Z,1.70
2018-02-09T19:27:49.646Z,1.70
2018-02-09T19:30:17.126Z,1.70
2018-02-09T19:32:44.681Z,1.70
2018-02-09T19:35:12.189Z,1.70
2018-02-09T19:37:39.670Z,1.70
2018-02-09T19:40:07.917Z,1.70
2018-02-09T19:42:35.417Z,1.70
2018-02-09T19:45:02.897Z,1.80
2018-02-09T19:47:30.376Z,1.90
2018-02-09T19:49:57.885Z,1.90
2018-02-09T19:52:25.362Z,1.90
2018-02-09T19:54:52.842Z,2.00
2018-02-09T19:57:20.345Z,2.00
2018-02-09T19:59:48.585Z,2.10
2018-02-09T20:02:16.077Z,2.10
2018-02-09T20:04:44.329Z,2.10
2018-02-09T20:07:11.810Z,2.10
2018-02-09T20:09:40.069Z,2.10
2018-02-09T20:12:07.548Z,2.10
2018-02-09T20:14:35.028Z,2.10
2018-02-09T20:17:02.525Z,2.10
2018-02-09T20:19:30.002Z,2.10
2018-02-09T20:22:00.665Z,2.10
2018-02-09T20:24:28.304Z,2.10
2018-02-09T20:26:56.542Z,2.10
2018-02-09T20:29:24.037Z,2.10
2018-02-09T20:31:52.281Z,2.10
2018-02-09T20:34:19.753Z,2.00
2018-02-09T20:36:47.245Z,2.10
2018-02-09T20:39:15.477Z,2.10
2018-02-09T20:41:43.169Z,2.10
2018-02-09T20:44:11.424Z,2.10
2018-02-09T20:46:38.892Z,2.00
2018-02-09T20:49:07.153Z,2.00
2018-02-09T20:51:34.630Z,2.00
2018-02-09T20:54:02.881Z,1.70
2018-02-09T20:56:30.380Z,1.70
2018-02-09T20:58:57.857Z,1.50
2018-02-09T21:01:25.333Z,1.30
2018-02-09T21:03:52.833Z,1.40
2018-02-09T21:06:21.113Z,1.60
2018-02-09T21:08:48.594Z,1.50
2018-02-09T21:11:16.097Z,1.50
2018-02-09T21:13:43.585Z,1.50
2018-02-09T21:16:11.825Z,1.40
2018-02-09T21:18:39.316Z,1.30
2018-02-09T21:21:07.592Z,1.20
2018-02-09T21:23:35.832Z,1.10
2018-02-09T21:26:03.333Z,1.10
2018-02-09T21:28:30.814Z,1.10
2018-02-09T21:30:58.293Z,1.10
2018-02-09T21:33:26.045Z,1.10
2018-02-09T21:35:53.516Z,1.10
2018-02-09T21:38:21.113Z,1.10
2018-02-09T21:40:49.353Z,1.10
2018-02-09T21:43:16.829Z,1.10
2018-02-09T21:45:44.333Z,1.20
2018-02-09T21:48:11.813Z,1.20
2018-02-09T21:50:39.321Z,1.20
2018-02-09T21:53:07.588Z,1.10
2018-02-09T21:55:35.833Z,1.10
2018-02-09T21:58:03.390Z,1.10
2018-02-09T22:00:30.868Z,1.20
2018-02-09T22:02:58.350Z,1.30
2018-02-09T22:05:26.869Z,1.30
2018-02-09T22:07:54.356Z,1.30
2018-02-09T22:10:21.833Z,1.40
2018-02-09T22:12:50.136Z,1.50
2018-02-09T22:15:17.651Z,1.50
2018-02-09T22:17:46.633Z,1.50
2018-02-09T22:20:14.152Z,1.50
2018-02-09T22:22:41.625Z,1.50
2018-02-09T22:25:09.126Z,1.50
2018-02-09T22:27:36.637Z,1.50
2018-02-09T22:30:04.113Z,1.50
2018-02-09T22:32:31.613Z,1.50
2018-02-09T22:34:59.169Z,1.50
2018-02-09T22:37:27.416Z,1.50
2018-02-09T22:39:54.917Z,1.50
2018-02-09T22:42:23.153Z,1.50
2018-02-09T22:44:50.629Z,1.50
2018-02-09T22:47:18.116Z,1.50
2018-02-09T22:49:45.592Z,1.50
2018-02-09T22:52:13.100Z,1.60
2018-02-09T22:54:41.345Z,1.60
2018-02-09T22:57:08.829Z,1.50
2018-02-09T22:59:37.123Z,1.50
2018-02-09T23:02:05.356Z,1.60
2018-02-09T23:04:32.845Z,1.60
2018-02-09T23:07:01.081Z,1.50
2018-02-09T23:09:28.557Z,1.50
2018-02-09T23:11:56.057Z,1.40
2018-02-09T23:14:23.530Z,1.40
2018-02-09T23:16:51.005Z,1.30
2018-02-09T23:19:18.493Z,1.30
2018-02-09T23:21:45.964Z,1.40
2018-02-09T23:24:14.225Z,1.10
2018-02-09T23:26:41.727Z,1.10
2018-02-09T23:29:09.190Z,1.10
2018-02-09T23:31:36.688Z,1.00
2018-02-09T23:34:04.169Z,0.90
2018-02-09T23:36:32.413Z,1.10
2018-02-09T23:38:59.916Z,1.10
2018-02-09T23:41:27.465Z,1.10
2018-02-09T23:43:55.709Z,1.10
2018-02-09T23:46:23.208Z,1.10
2018-02-09T23:48:50.756Z,1.20
2018-02-09T23:51:19.029Z,1.20
2018-02-09T23:53:47.304Z,1.20
2018-02-09T23:56:15.556Z,1.30
2018-02-09T23:58:43.169Z,1.30
